Terminal Aerodrome Forecast
Issued by NWS Wilmington, OH

Current Version | Previous Version | Graphics & Text | Print | Product List | Glossary On
Versions: 1 2 3 4 5 6 7 8 9 10 11 12 13 14 15 16 17 18 19 20 21 22 23 24 25 26 27
000
FTUS41 KILN 250500 RRA
TAFCVG
TAF
KCVG 250542Z 2506/2612 13010KT P6SM VCSH SCT050 OVC070
      TEMPO 2506/2509 -SHRA OVC050
     FM250900 18013G20KT 4SM -SHRA BR OVC035
     FM251300 23014G24KT P6SM SCT035 BKN150
     FM252200 23009KT P6SM SCT035 BKN120
     FM260600 15010KT 4SM -SHRA BR VCTS OVC025CB=

USA.gov is the U.S. government's official web portal to all federal, state and local government web resources and services.